Time;durP1;ratioP1;P1;durP2;ratioP2;P2;SDS_P1;SDS_P2;PMS_P1;PMS_P2;Temp;Humidity;BMP_temperature;BMP_pressure;BME280_temperature;BME280_humidity;BME280_pressure;Samples;Min_cycle;Max_cycle;Signal;HPM_P1;HPM_P2
2022/06/20 00:01:31;;;;;;;346.83;328.98;;;22.60;99.90;;;;;;5055525;28;20185;-81
2022/06/20 00:03:56;;;;;;;278.13;264.02;;;22.50;99.90;;;;;;5037817;28;20194;-82
2022/06/20 00:06:24;;;;;;;179.43;169.90;;;22.40;99.90;;;;;;5033834;28;20211;-83
2022/06/20 00:08:51;;;;;;;95.50;89.32;;;22.30;99.90;;;;;;5033224;28;20218;-83
2022/06/20 00:11:41;;;;;;;150.65;142.27;;;22.20;99.90;;;;;;5035413;28;20179;-83
2022/06/20 00:14:15;;;;;;;213.98;202.80;;;22.30;99.90;;;;;;5030646;28;20199;-83
2022/06/20 00:16:42;;;;;;;246.93;233.90;;;22.30;99.90;;;;;;5033182;28;20217;-83
2022/06/20 00:19:09;;;;;;;273.50;259.02;;;22.20;99.90;;;;;;5033627;28;20229;-83
2022/06/20 00:21:38;;;;;;;273.10;258.83;;;22.10;99.90;;;;;;5025662;28;20203;-82
2022/06/20 00:24:06;;;;;;;280.73;265.40;;;22.10;99.90;;;;;;5032142;28;20210;-82
2022/06/20 00:26:33;;;;;;;289.80;274.77;;;22.10;99.90;;;;;;5034336;28;20207;-83
2022/06/20 00:29:01;;;;;;;291.95;276.92;;;22.10;99.90;;;;;;5043791;28;20703;-82
2022/06/20 00:31:27;;;;;;;314.35;297.80;;;22.20;99.90;;;;;;5040580;28;20179;-80
2022/06/20 00:33:53;;;;;;;322.95;305.55;;;22.20;99.90;;;;;;5037160;28;20198;-81
2022/06/20 00:36:18;;;;;;;328.48;310.83;;;22.30;99.90;;;;;;5018264;28;20207;-77
2022/06/20 00:38:48;;;;;;;287.13;271.55;;;22.40;99.90;;;;;;5036956;28;20270;-80
2022/06/20 00:41:22;;;;;;;265.70;251.02;;;22.30;99.90;;;;;;5045372;28;20175;-83
2022/06/20 00:43:51;;;;;;;205.68;194.32;;;22.30;99.90;;;;;;5032464;28;20537;-83
2022/06/20 00:46:42;;;;;;;143.30;135.45;;;22.30;99.90;;;;;;5032861;28;20203;-81
2022/06/20 00:49:14;;;;;;;63.17;58.70;;;22.20;99.90;;;;;;5026062;28;20218;-82
2022/06/20 00:51:54;;;;;;;241.38;228.45;;;22.20;99.90;;;;;;5045651;28;20179;-80
2022/06/20 00:54:48;;;;;;;223.82;212.15;;;22.10;99.90;;;;;;5032127;28;20180;-82
2022/06/20 00:57:19;;;;;;;196.45;186.23;;;22.00;99.90;;;;;;5040824;28;20206;-82
2022/06/20 00:59:51;;;;;;;178.88;169.15;;;21.90;99.90;;;;;;5027388;28;20219;-80
2022/06/20 01:02:24;;;;;;;122.18;115.80;;;21.90;99.90;;;;;;5034061;28;20184;-82
2022/06/20 01:04:59;;;;;;;78.60;73.97;;;21.80;99.90;;;;;;5019581;28;20198;-82
2022/06/20 01:07:40;;;;;;;40.65;37.25;;;21.80;99.90;;;;;;5022988;28;20234;-82
2022/06/20 01:10:08;;;;;;;22.00;19.92;;;21.70;99.90;;;;;;5033305;28;20214;-84
2022/06/20 01:12:51;;;;;;;17.42;15.95;;;21.70;99.90;;;;;;5033593;28;20179;-83
2022/06/20 01:15:24;;;;;;;19.98;15.45;;;21.70;99.90;;;;;;5033194;28;20233;-82
2022/06/20 01:17:51;;;;;;;21.40;15.00;;;21.70;99.90;;;;;;5015826;28;20188;-83
2022/06/20 01:20:19;;;;;;;15.10;13.55;;;21.80;99.90;;;;;;5024020;28;20625;-84
2022/06/20 01:23:07;;;;;;;16.48;14.98;;;21.70;99.90;;;;;;5021539;28;20187;-83
2022/06/20 01:25:44;;;;;;;19.95;16.90;;;21.80;99.90;;;;;;5017084;28;20668;-83
2022/06/20 01:28:15;;;;;;;17.50;13.13;;;21.70;99.90;;;;;;5018454;28;20211;-83
2022/06/20 01:30:44;;;;;;;16.05;14.50;;;21.70;99.90;;;;;;5021685;28;20187;-83
2022/06/20 01:33:11;;;;;;;19.30;14.07;;;21.60;99.90;;;;;;5034231;28;20179;-82
2022/06/20 01:38:24;;;;;;;17.70;15.93;;;21.70;99.90;;;;;;5012624;28;20274;-82
2022/06/20 01:43:36;;;;;;;17.83;13.90;;;21.60;99.90;;;;;;5014288;28;20175;-83
2022/06/20 01:46:09;;;;;;;14.52;13.23;;;21.80;99.90;;;;;;5026394;28;20347;-82
2022/06/20 01:48:42;;;;;;;16.48;14.10;;;21.80;99.90;;;;;;5030940;28;20224;-81
2022/06/20 01:51:26;;;;;;;21.35;15.48;;;21.60;99.90;;;;;;5031377;28;20643;-82
2022/06/20 01:53:55;;;;;;;39.22;36.40;;;21.50;99.90;;;;;;5031001;28;20272;-81
2022/06/20 01:56:22;;;;;;;46.38;42.97;;;21.40;99.90;;;;;;5035228;28;20189;-81
2022/06/20 01:59:06;;;;;;;61.00;57.15;;;21.30;99.90;;;;;;5032476;28;20545;-81
2022/06/20 02:01:35;;;;;;;81.47;76.85;;;21.30;99.90;;;;;;5034033;28;20209;-82
2022/06/20 02:04:06;;;;;;;72.88;68.53;;;21.20;99.90;;;;;;5034200;28;20205;-82
2022/06/20 02:06:33;;;;;;;49.50;45.80;;;21.10;99.90;;;;;;5034265;28;20215;-82
2022/06/20 02:08:59;;;;;;;40.50;37.10;;;21.10;99.90;;;;;;5032393;28;20199;-82
2022/06/20 02:11:37;;;;;;;104.90;98.70;;;21.20;99.90;;;;;;5033360;28;20183;-81
2022/06/20 02:14:11;;;;;;;71.47;66.47;;;21.20;99.90;;;;;;5033476;28;20175;-81
2022/06/20 02:16:41;;;;;;;62.10;58.53;;;21.30;99.90;;;;;;5033283;28;20182;-82
2022/06/20 02:19:11;;;;;;;34.35;31.70;;;21.50;99.90;;;;;;5035024;28;20216;-81
2022/06/20 02:21:38;;;;;;;72.30;67.50;;;21.50;99.90;;;;;;5045539;28;20214;-79
2022/06/20 02:24:14;;;;;;;82.65;77.55;;;21.50;99.90;;;;;;5056432;28;20198;-81
2022/06/20 02:26:43;;;;;;;97.22;91.45;;;21.50;99.90;;;;;;5051282;28;20229;-81
2022/06/20 02:29:22;;;;;;;84.70;79.53;;;21.40;99.90;;;;;;5048868;28;20248;-81
2022/06/20 02:32:07;;;;;;;64.35;60.15;;;21.30;99.90;;;;;;5035859;28;20602;-82
2022/06/20 02:34:34;;;;;;;170.43;160.07;;;21.30;99.90;;;;;;5040207;28;20190;-81
2022/06/20 02:37:03;;;;;;;189.98;178.70;;;21.40;99.90;;;;;;5045024;28;20241;-81
2022/06/20 02:39:30;;;;;;;232.35;219.68;;;21.30;99.90;;;;;;5044439;28;20480;-81
2022/06/20 02:42:01;;;;;;;160.38;151.30;;;21.40;99.90;;;;;;5034210;28;20183;-81
2022/06/20 02:44:29;;;;;;;269.40;254.07;;;21.40;99.90;;;;;;5036051;28;20214;-81
2022/06/20 02:46:57;;;;;;;308.45;291.40;;;21.30;99.90;;;;;;5033586;28;20233;-81
2022/06/20 02:49:26;;;;;;;158.07;149.20;;;21.40;99.90;;;;;;5034102;28;20653;-81
2022/06/20 02:51:54;;;;;;;120.18;113.45;;;21.50;99.90;;;;;;5049993;28;20167;-80
2022/06/20 02:54:27;;;;;;;61.78;57.92;;;21.40;99.90;;;;;;5050110;28;20186;-80
2022/06/20 02:57:00;;;;;;;47.92;44.40;;;21.40;99.90;;;;;;5046266;28;20183;-80
2022/06/20 02:59:37;;;;;;;62.72;58.70;;;21.40;99.90;;;;;;5047661;28;20214;-80
2022/06/20 03:02:11;;;;;;;81.10;76.38;;;21.40;99.90;;;;;;5039148;28;20175;-81
2022/06/20 03:04:41;;;;;;;97.05;91.53;;;21.40;99.90;;;;;;5035379;28;20814;-81
2022/06/20 03:07:16;;;;;;;472.52;436.23;;;21.50;99.90;;;;;;5034739;28;20207;-77
2022/06/20 03:09:45;;;;;;;221.77;207.52;;;21.10;99.90;;;;;;5032252;28;20751;-77
2022/06/20 03:12:11;;;;;;;129.70;122.00;;;20.60;99.90;;;;;;5033454;28;20696;-76
2022/06/20 03:14:46;;;;;;;238.77;222.20;;;20.20;99.90;;;;;;5031813;28;20233;-75
2022/06/20 03:17:15;;;;;;;185.55;173.82;;;20.00;99.90;;;;;;5031309;28;20234;-75
2022/06/20 03:19:44;;;;;;;164.75;153.80;;;19.90;99.90;;;;;;5031260;28;20207;-77
2022/06/20 03:22:15;;;;;;;111.72;104.43;;;19.80;99.90;;;;;;5032076;28;20186;-77
2022/06/20 03:24:42;;;;;;;102.20;94.88;;;19.80;99.90;;;;;;5030793;28;20626;-77
2022/06/20 03:27:20;;;;;;;69.15;63.25;;;19.90;99.90;;;;;;5029634;28;20639;-76
2022/06/20 03:29:51;;;;;;;221.00;206.00;;;19.80;99.90;;;;;;5030038;28;20206;-76
2022/06/20 03:32:17;;;;;;;62.83;57.97;;;19.70;99.90;;;;;;5031598;28;20183;-76
2022/06/20 03:34:43;;;;;;;78.43;72.38;;;19.60;99.90;;;;;;5034005;28;20183;-76
2022/06/20 03:37:09;;;;;;;60.47;55.92;;;19.70;99.90;;;;;;5034549;28;20245;-76
2022/06/20 03:39:36;;;;;;;49.72;45.78;;;19.70;99.90;;;;;;5033340;28;20195;-78
2022/06/20 03:42:03;;;;;;;121.60;113.15;;;19.70;99.90;;;;;;5030070;28;20189;-77
2022/06/20 03:44:37;;;;;;;91.68;84.63;;;19.80;99.90;;;;;;5031043;28;20275;-79
2022/06/20 03:47:09;;;;;;;54.67;50.72;;;20.00;99.90;;;;;;5030952;28;20246;-77
2022/06/20 03:49:48;;;;;;;63.95;58.60;;;20.00;99.90;;;;;;5032046;28;20268;-78
2022/06/20 03:52:22;;;;;;;38.13;34.40;;;20.00;99.90;;;;;;5032540;28;20182;-77
2022/06/20 03:55:17;;;;;;;34.95;31.45;;;19.90;99.90;;;;;;5031710;28;20190;-77
2022/06/20 03:57:58;;;;;;;32.42;29.38;;;19.90;99.90;;;;;;5031487;28;20231;-77
2022/06/20 04:00:35;;;;;;;40.03;35.55;;;19.80;99.90;;;;;;5031281;28;20199;-77
2022/06/20 04:03:12;;;;;;;31.42;27.85;;;19.80;99.90;;;;;;5030698;28;20186;-76
2022/06/20 04:05:49;;;;;;;36.65;31.88;;;19.80;99.90;;;;;;5032254;28;20191;-77
2022/06/20 04:10:57;;;;;;;37.00;33.00;;;19.70;99.90;;;;;;5029302;28;20210;-77
2022/06/20 04:11:20;;;;;;;38.05;34.42;;;19.80;99.90;;;;;;5031207;28;20185;-77
2022/06/20 04:14:05;;;;;;;45.78;41.78;;;19.80;99.90;;;;;;5030120;28;20175;-77
2022/06/20 04:16:31;;;;;;;107.13;99.70;;;19.80;99.90;;;;;;5031530;28;20210;-76
2022/06/20 04:19:23;;;;;;;105.97;98.45;;;19.70;99.90;;;;;;5030999;28;20198;-77
2022/06/20 04:21:56;;;;;;;93.45;87.00;;;19.60;99.90;;;;;;5030985;28;20191;-78
2022/06/20 04:24:24;;;;;;;50.70;46.78;;;19.70;99.90;;;;;;5031159;28;20205;-79
2022/06/20 04:27:05;;;;;;;50.95;45.28;;;19.80;99.90;;;;;;5031617;28;20206;-77
2022/06/20 04:29:40;;;;;;;50.42;45.42;;;19.80;99.90;;;;;;5032288;28;20298;-78
2022/06/20 04:32:37;;;;;;;59.85;55.03;;;19.90;99.90;;;;;;5031714;28;20189;-78
2022/06/20 04:35:11;;;;;;;34.47;31.00;;;20.00;99.90;;;;;;5036123;28;20543;-77
2022/06/20 04:37:49;;;;;;;43.60;39.67;;;20.10;99.90;;;;;;5033188;28;20566;-77
2022/06/20 04:40:41;;;;;;;46.58;42.20;;;20.10;99.90;;;;;;5031280;28;20205;-77
2022/06/20 04:43:26;;;;;;;56.40;51.88;;;20.20;99.90;;;;;;5036085;28;20183;-77
2022/06/20 04:46:02;;;;;;;60.47;56.10;;;20.20;99.90;;;;;;5035836;28;20194;-76
2022/06/20 04:48:28;;;;;;;53.95;48.80;;;20.20;99.90;;;;;;5035508;28;20264;-78
2022/06/20 04:51:01;;;;;;;50.47;46.70;;;20.20;99.90;;;;;;5033812;28;20233;-76
2022/06/20 04:53:32;;;;;;;51.75;46.97;;;20.20;99.90;;;;;;5033065;28;20179;-78
2022/06/20 04:56:03;;;;;;;66.90;62.03;;;20.30;99.90;;;;;;5033660;28;20244;-78
2022/06/20 04:59:07;;;;;;;100.60;93.88;;;20.20;99.90;;;;;;5030790;28;20718;-78
2022/06/20 05:01:36;;;;;;;138.95;130.10;;;20.30;99.90;;;;;;5005638;28;20184;-78
2022/06/20 05:04:16;;;;;;;163.57;153.50;;;20.30;99.90;;;;;;5008008;28;20612;-78
2022/06/20 05:06:42;;;;;;;127.97;119.53;;;20.20;99.90;;;;;;5015023;28;20203;-76
2022/06/20 05:09:22;;;;;;;89.70;83.03;;;20.10;99.90;;;;;;5029400;28;20229;-78
2022/06/20 05:12:11;;;;;;;72.18;66.93;;;20.10;99.90;;;;;;5030936;28;20214;-78
2022/06/20 05:14:45;;;;;;;61.50;56.58;;;20.10;99.90;;;;;;5031189;28;20251;-79
2022/06/20 05:17:22;;;;;;;37.90;34.83;;;20.10;99.90;;;;;;5030418;28;20209;-77
2022/06/20 05:19:52;;;;;;;90.78;84.65;;;19.90;99.90;;;;;;5034767;28;20210;-78
2022/06/20 05:22:30;;;;;;;75.63;70.50;;;19.80;99.90;;;;;;5040064;28;20183;-83
2022/06/20 05:25:00;;;;;;;71.97;66.85;;;19.90;99.90;;;;;;5033911;28;20557;-82
2022/06/20 05:27:30;;;;;;;77.82;72.38;;;20.00;99.90;;;;;;5033761;28;20242;-78
2022/06/20 05:30:01;;;;;;;85.32;78.38;;;20.00;99.90;;;;;;5043524;28;20211;-77
2022/06/20 05:32:40;;;;;;;60.20;55.13;;;20.10;99.90;;;;;;5041255;28;20183;-78
2022/06/20 05:35:15;;;;;;;128.57;119.10;;;20.20;99.90;;;;;;5037205;28;20171;-77
2022/06/20 05:37:49;;;;;;;163.40;152.50;;;20.30;99.90;;;;;;5033672;28;20183;-77
2022/06/20 05:40:42;;;;;;;247.40;231.80;;;20.40;99.90;;;;;;5034138;28;20245;-72
2022/06/20 05:43:20;;;;;;;80.35;74.03;;;20.40;99.90;;;;;;5033190;28;20238;-74
2022/06/20 05:46:01;;;;;;;28.92;24.73;;;20.40;99.90;;;;;;5032246;28;20206;-73
2022/06/20 05:48:40;;;;;;;33.72;30.48;;;20.50;99.90;;;;;;5032145;28;20218;-73
2022/06/20 05:51:13;;;;;;;147.07;138.10;;;20.50;99.90;;;;;;5033332;28;20187;-74
2022/06/20 05:53:41;;;;;;;176.38;166.10;;;20.50;99.90;;;;;;5033201;28;20678;-73
2022/06/20 05:56:25;;;;;;;183.73;172.68;;;20.60;99.90;;;;;;5033229;28;20186;-72
2022/06/20 05:58:53;;;;;;;242.82;229.35;;;20.60;99.90;;;;;;5030732;28;20340;-73
2022/06/20 06:01:25;;;;;;;184.82;173.90;;;20.60;99.90;;;;;;5033144;28;20179;-73
2022/06/20 06:04:03;;;;;;;196.48;185.00;;;20.60;99.90;;;;;;5032922;28;20282;-73
2022/06/20 06:06:42;;;;;;;119.75;112.15;;;20.50;99.90;;;;;;5032588;28;20259;-72
2022/06/20 06:09:25;;;;;;;25.73;22.98;;;20.60;99.90;;;;;;5032430;28;20848;-73
2022/06/20 06:12:04;;;;;;;47.38;43.70;;;20.60;99.90;;;;;;5032874;28;20183;-73
2022/06/20 06:14:34;;;;;;;46.75;43.20;;;20.50;99.90;;;;;;5032964;28;20179;-73
2022/06/20 06:17:22;;;;;;;74.25;69.28;;;20.50;99.90;;;;;;5031863;28;20183;-74
2022/06/20 06:19:59;;;;;;;39.80;36.08;;;20.40;99.90;;;;;;5031905;28;20810;-73
2022/06/20 06:22:29;;;;;;;69.32;63.85;;;20.40;99.90;;;;;;5023641;28;20701;-75
2022/06/20 06:25:19;;;;;;;50.72;46.83;;;20.40;99.90;;;;;;5011632;28;20532;-73
2022/06/20 06:27:47;;;;;;;115.32;107.68;;;20.40;99.90;;;;;;5011474;28;20211;-73
2022/06/20 06:30:22;;;;;;;108.85;101.40;;;20.40;99.90;;;;;;5012127;28;20290;-74
2022/06/20 06:33:20;;;;;;;113.28;105.55;;;20.50;99.90;;;;;;5010230;28;20179;-72
2022/06/20 06:36:02;;;;;;;131.63;123.72;;;20.70;99.90;;;;;;5013136;28;20683;-72
2022/06/20 06:38:36;;;;;;;33.90;30.80;;;20.80;99.90;;;;;;5023225;28;20207;-72
2022/06/20 06:41:13;;;;;;;30.23;25.75;;;21.00;99.90;;;;;;5028796;28;20189;-72
2022/06/20 06:43:43;;;;;;;79.30;73.90;;;21.20;99.90;;;;;;5030337;28;20248;-74
2022/06/20 06:46:41;;;;;;;69.22;63.88;;;21.30;99.90;;;;;;5027813;28;20191;-73
2022/06/20 06:49:36;;;;;;;61.03;56.10;;;21.40;99.90;;;;;;5029683;28;20219;-73
2022/06/20 06:52:15;;;;;;;111.47;103.30;;;21.30;99.90;;;;;;5032621;28;20179;-73
2022/06/20 06:54:41;;;;;;;44.80;40.88;;;22.00;99.90;;;;;;5029522;28;20235;-73
2022/06/20 06:57:27;;;;;;;57.03;52.92;;;22.80;99.90;;;;;;5030513;28;20183;-73
2022/06/20 07:00:05;;;;;;;46.72;42.97;;;23.30;99.90;;;;;;5029982;28;20585;-72
2022/06/20 07:02:47;;;;;;;75.80;70.35;;;23.60;99.90;;;;;;5030169;28;20190;-72
2022/06/20 07:05:29;;;;;;;69.57;64.90;;;24.40;99.90;;;;;;5031121;28;20202;-72
2022/06/20 07:08:17;;;;;;;186.10;175.13;;;24.90;99.90;;;;;;5029163;28;20202;-73
2022/06/20 07:10:52;;;;;;;77.65;71.95;;;24.90;99.90;;;;;;5030943;28;20179;-73
2022/06/20 07:13:39;;;;;;;145.57;136.43;;;24.90;99.90;;;;;;5030530;28;20185;-73
2022/06/20 07:16:20;;;;;;;81.95;75.95;;;25.20;99.90;;;;;;5030681;28;20557;-73
2022/06/20 07:18:50;;;;;;;36.47;33.30;;;25.80;99.90;;;;;;5029608;28;20305;-72
2022/06/20 07:21:19;;;;;;;44.53;40.80;;;26.20;99.90;;;;;;5031156;28;20190;-74
2022/06/20 07:23:53;;;;;;;25.27;17.05;;;26.40;99.90;;;;;;5030603;28;20179;-73
2022/06/20 07:26:22;;;;;;;23.73;16.67;;;26.40;99.90;;;;;;5031238;28;20226;-72
2022/06/20 07:28:54;;;;;;;28.52;25.77;;;26.00;99.90;;;;;;5029924;28;20206;-72
2022/06/20 07:31:25;;;;;;;21.13;12.77;;;25.60;99.90;;;;;;5030812;28;20175;-73
2022/06/20 07:33:56;;;;;;;17.33;13.77;;;25.60;99.90;;;;;;5031635;28;20560;-73
2022/06/20 07:36:29;;;;;;;19.70;13.15;;;25.80;99.90;;;;;;5030887;28;20194;-73
2022/06/20 07:39:28;;;;;;;21.15;14.07;;;25.70;99.90;;;;;;5030295;28;20203;-73
2022/06/20 07:42:07;;;;;;;31.92;29.23;;;25.80;99.90;;;;;;5009145;28;20240;-70
2022/06/20 07:45:01;;;;;;;28.20;25.70;;;26.00;99.90;;;;;;5031388;28;20279;-70
2022/06/20 07:47:37;;;;;;;27.13;14.68;;;26.10;99.90;;;;;;5006661;28;20286;-75
2022/06/20 07:50:14;;;;;;;94.38;88.60;;;26.70;99.90;;;;;;5011277;28;20238;-76
2022/06/20 07:52:48;;;;;;;22.85;20.77;;;27.40;99.90;;;;;;5012101;28;20666;-75
2022/06/20 07:55:18;;;;;;;21.88;19.67;;;28.10;99.90;;;;;;5030900;28;20182;-75
2022/06/20 07:57:49;;;;;;;64.75;60.20;;;28.60;99.90;;;;;;5029986;28;20194;-77
2022/06/20 08:00:19;;;;;;;74.90;70.05;;;29.20;99.90;;;;;;5031568;28;20203;-77
2022/06/20 08:02:53;;;;;;;222.80;210.18;;;29.50;99.90;;;;;;5031723;28;20182;-77
2022/06/20 08:05:28;;;;;;;345.38;325.45;;;29.80;99.90;;;;;;5031411;28;20214;-77
2022/06/20 08:08:26;;;;;;;209.82;197.80;;;30.10;99.90;;;;;;5030782;28;20269;-77
2022/06/20 08:10:57;;;;;;;166.13;156.40;;;30.50;99.90;;;;;;5018863;28;20288;-77
2022/06/20 08:13:38;;;;;;;23.45;20.90;;;30.60;99.90;;;;;;5030585;28;20594;-76
2022/06/20 08:16:22;;;;;;;15.65;13.75;;;30.30;99.90;;;;;;5029995;28;20312;-76
2022/06/20 08:18:48;;;;;;;24.48;21.70;;;30.60;99.90;;;;;;5029925;28;20238;-76
2022/06/20 08:21:33;;;;;;;16.10;10.35;;;31.00;99.90;;;;;;5030249;28;20206;-77
2022/06/20 08:24:04;;;;;;;17.10;12.88;;;30.90;99.90;;;;;;5031149;28;20249;-77
2022/06/20 08:26:34;;;;;;;17.05;11.10;;;31.10;99.90;;;;;;5031214;28;20218;-76
2022/06/20 08:29:15;;;;;;;20.83;11.40;;;30.90;99.90;;;;;;5030355;28;20571;-77
2022/06/20 08:31:50;;;;;;;18.95;14.25;;;31.10;99.90;;;;;;5030162;28;20186;-76
2022/06/20 08:34:22;;;;;;;19.05;13.10;;;31.30;99.90;;;;;;5030001;28;20255;-76
2022/06/20 08:36:53;;;;;;;15.75;12.57;;;31.30;99.90;;;;;;5030387;28;20559;-76
2022/06/20 08:39:32;;;;;;;42.97;39.78;;;31.70;99.90;;;;;;5031170;28;20218;-77
2022/06/20 08:42:17;;;;;;;13.32;11.93;;;31.40;99.90;;;;;;5031749;28;20190;-76
2022/06/20 08:45:27;;;;;;;13.60;12.10;;;31.40;99.90;;;;;;5031856;28;20210;-76
2022/06/20 08:48:20;;;;;;;19.88;13.02;;;31.30;99.90;;;;;;4998063;28;20226;-77
2022/06/20 08:51:03;;;;;;;26.45;24.33;;;31.10;99.90;;;;;;5029863;28;20187;-77
2022/06/20 08:54:09;;;;;;;15.32;12.05;;;31.10;99.90;;;;;;5029820;28;20186;-76
2022/06/20 08:57:06;;;;;;;16.80;15.30;;;31.00;99.90;;;;;;5030626;28;20175;-77
2022/06/20 08:59:50;;;;;;;13.10;10.15;;;30.40;99.90;;;;;;5030617;28;20203;-76
2022/06/20 09:02:36;;;;;;;10.98;8.77;;;29.80;99.90;;;;;;5030809;28;20178;-76
2022/06/20 09:05:11;;;;;;;12.23;7.45;;;29.90;99.90;;;;;;5034108;28;20201;-76
2022/06/20 09:07:49;;;;;;;13.48;8.35;;;29.60;99.90;;;;;;5033888;28;20304;-76
2022/06/20 09:10:27;;;;;;;9.23;8.10;;;29.70;99.90;;;;;;5034800;28;20281;-76
2022/06/20 09:13:15;;;;;;;11.85;8.30;;;30.00;99.90;;;;;;5034575;28;20565;-76
2022/06/20 09:15:47;;;;;;;14.93;7.78;;;30.20;99.90;;;;;;5034789;28;20246;-75
2022/06/20 09:18:19;;;;;;;13.25;8.77;;;30.60;99.90;;;;;;5032531;28;20434;-76
2022/06/20 09:20:50;;;;;;;19.25;16.90;;;30.80;99.90;;;;;;5034762;28;20714;-76
2022/06/20 09:23:34;;;;;;;19.50;17.83;;;30.20;99.90;;;;;;5033360;28;20215;-76
2022/06/20 09:26:54;;;;;;;16.58;11.75;;;30.00;99.90;;;;;;5034670;28;20690;-76
2022/06/20 09:29:55;;;;;;;16.60;15.05;;;30.30;99.90;;;;;;4976195;28;20226;-75
2022/06/20 09:32:52;;;;;;;16.45;14.23;;;30.50;99.90;;;;;;4957106;28;20306;-76
2022/06/20 09:35:36;;;;;;;15.25;13.60;;;30.50;99.90;;;;;;5034676;28;20179;-76
2022/06/20 09:38:02;;;;;;;17.73;16.33;;;30.70;99.90;;;;;;5033637;28;20179;-76
2022/06/20 09:40:55;;;;;;;41.17;38.08;;;31.30;99.80;;;;;;5034368;28;20244;-76
2022/06/20 09:43:37;;;;;;;19.95;18.58;;;32.20;97.40;;;;;;5033913;28;20673;-75
2022/06/20 09:46:21;;;;;;;10.73;7.85;;;32.40;96.20;;;;;;5036633;28;20614;-76
2022/06/20 09:49:05;;;;;;;8.23;7.35;;;32.70;94.80;;;;;;5033778;28;20305;-76
2022/06/20 09:51:57;;;;;;;12.15;7.90;;;32.50;95.20;;;;;;5034332;28;20534;-76
2022/06/20 09:54:49;;;;;;;9.18;8.02;;;33.00;95.10;;;;;;5034067;28;20183;-76
2022/06/20 09:57:36;;;;;;;14.18;11.50;;;32.90;95.10;;;;;;5024713;28;20187;-76
2022/06/20 10:00:32;;;;;;;16.23;14.82;;;32.60;94.80;;;;;;5033843;28;20207;-77
2022/06/20 10:03:12;;;;;;;13.82;12.40;;;31.50;93.40;;;;;;5032849;28;20186;-76
2022/06/20 10:05:56;;;;;;;12.98;7.55;;;31.20;94.10;;;;;;5034469;28;20179;-76
2022/06/20 10:08:29;;;;;;;11.82;7.28;;;31.10;94.90;;;;;;5031801;28;20260;-77
2022/06/20 10:11:26;;;;;;;9.57;7.82;;;31.50;94.40;;;;;;5032836;28;20225;-77
2022/06/20 10:14:21;;;;;;;15.43;14.02;;;32.00;93.00;;;;;;5032947;28;20644;-76
2022/06/20 10:17:13;;;;;;;10.30;8.80;;;32.90;91.40;;;;;;5031646;28;20261;-76
2022/06/20 10:19:52;;;;;;;10.70;7.53;;;33.20;91.30;;;;;;5016799;28;20269;-75
2022/06/20 10:22:37;;;;;;;14.25;9.77;;;33.40;91.00;;;;;;5033369;28;20183;-75
2022/06/20 10:25:03;;;;;;;14.68;13.27;;;33.50;88.60;;;;;;5032271;28;20214;-77
2022/06/20 10:27:56;;;;;;;9.35;7.60;;;32.70;89.10;;;;;;5032414;28;20239;-75
2022/06/20 10:30:38;;;;;;;10.45;7.53;;;32.50;89.60;;;;;;5033094;28;20199;-76
2022/06/20 10:33:28;;;;;;;12.02;9.07;;;33.00;89.80;;;;;;5032183;28;20672;-75
2022/06/20 10:36:15;;;;;;;13.88;12.48;;;33.20;87.40;;;;;;5032108;28;20270;-76
2022/06/20 10:38:43;;;;;;;13.63;11.80;;;32.90;87.60;;;;;;5032295;28;20230;-77
2022/06/20 10:41:25;;;;;;;12.23;8.52;;;32.80;86.30;;;;;;5033116;28;20229;-76
2022/06/20 10:44:29;;;;;;;11.95;10.77;;;32.40;88.40;;;;;;5032980;28;20651;-76
2022/06/20 10:47:05;;;;;;;14.90;10.63;;;33.00;87.00;;;;;;4974177;28;20295;-76
2022/06/20 10:49:51;;;;;;;12.82;9.68;;;32.90;86.40;;;;;;5036058;22;20231;-79
2022/06/20 10:52:58;;;;;;;9.77;8.57;;;31.80;88.40;;;;;;4997021;28;20226;-79
2022/06/20 10:55:43;;;;;;;11.07;10.00;;;30.70;91.10;;;;;;4985922;28;20232;-78
2022/06/20 10:58:27;;;;;;;11.07;7.00;;;30.10;91.70;;;;;;4994650;28;20192;-79
2022/06/20 11:01:05;;;;;;;14.02;12.55;;;29.60;92.00;;;;;;4995361;28;20236;-79
2022/06/20 11:03:34;;;;;;;45.80;42.67;;;29.10;92.00;;;;;;4997038;28;20187;-78
2022/06/20 11:06:18;;;;;;;59.25;55.65;;;28.80;92.80;;;;;;5009746;28;20181;-79
2022/06/20 11:09:01;;;;;;;50.13;47.15;;;28.90;93.10;;;;;;5003682;28;20188;-79
2022/06/20 11:11:44;;;;;;;51.60;48.28;;;29.30;93.50;;;;;;5007481;28;20400;-77
2022/06/20 11:14:31;;;;;;;18.40;10.00;;;30.30;93.10;;;;;;4994090;28;20176;-77
2022/06/20 11:17:17;;;;;;;11.32;6.55;;;31.40;90.60;;;;;;4995545;28;20188;-77
2022/06/20 11:20:00;;;;;;;9.52;7.55;;;31.10;90.00;;;;;;4996005;28;20208;-79
2022/06/20 11:22:52;;;;;;;12.23;10.45;;;31.20;90.20;;;;;;4994685;28;20275;-78
2022/06/20 11:25:46;;;;;;;12.55;8.55;;;32.00;86.80;;;;;;4999940;28;20195;-79
2022/06/20 11:28:27;;;;;;;12.85;9.32;;;31.60;88.50;;;;;;4995932;28;20618;-79
2022/06/20 11:31:36;;;;;;;10.90;7.88;;;30.90;90.00;;;;;;4997428;28;20599;-78
2022/06/20 11:34:19;;;;;;;11.27;8.52;;;30.00;90.70;;;;;;4996967;28;20181;-78
2022/06/20 11:37:03;;;;;;;15.10;13.13;;;29.40;91.20;;;;;;5009629;28;20184;-78
2022/06/20 11:39:50;;;;;;;51.05;47.88;;;29.00;91.50;;;;;;5003328;28;20230;-79
2022/06/20 11:42:30;;;;;;;50.97;47.95;;;28.80;91.90;;;;;;4998099;28;20637;-79
2022/06/20 11:45:21;;;;;;;23.58;21.58;;;28.50;91.80;;;;;;4999257;28;20263;-77
2022/06/20 11:48:17;;;;;;;11.75;10.57;;;28.30;93.10;;;;;;5003893;28;20711;-78
2022/06/20 11:50:51;;;;;;;15.25;13.85;;;28.10;93.20;;;;;;4996645;28;20219;-78
2022/06/20 11:53:23;;;;;;;17.65;12.57;;;27.60;93.40;;;;;;4995428;28;20191;-79
2022/06/20 11:55:58;;;;;;;11.75;9.88;;;27.50;93.90;;;;;;4995986;28;20188;-79
2022/06/20 11:58:31;;;;;;;9.90;8.73;;;27.60;93.70;;;;;;4996583;28;20180;-78
2022/06/20 12:01:10;;;;;;;17.67;11.50;;;27.90;93.70;;;;;;4995432;28;20212;-79
2022/06/20 12:03:54;;;;;;;13.50;12.20;;;28.40;93.00;;;;;;4996445;28;20184;-78
2022/06/20 12:06:33;;;;;;;11.63;10.77;;;28.50;92.40;;;;;;4995259;28;20431;-79
2022/06/20 12:09:43;;;;;;;13.10;10.77;;;28.40;92.10;;;;;;4995098;28;20200;-78
2022/06/20 12:12:20;;;;;;;15.77;14.25;;;28.20;92.90;;;;;;4981633;28;20211;-79
2022/06/20 12:15:18;;;;;;;15.35;13.88;;;27.80;92.40;;;;;;4998946;28;20502;-78
2022/06/20 12:17:57;;;;;;;14.88;9.07;;;27.60;93.40;;;;;;4995234;28;20184;-79
2022/06/20 12:23:32;;;;;;;16.35;13.82;;;28.10;93.10;;;;;;5000191;28;20572;-78
2022/06/20 12:26:23;;;;;;;12.93;11.88;;;28.40;93.10;;;;;;5005272;28;20200;-79
2022/06/20 12:28:52;;;;;;;39.55;36.92;;;29.50;92.20;;;;;;4995648;28;20196;-79
2022/06/20 12:31:24;;;;;;;39.03;36.42;;;29.60;91.30;;;;;;4996060;28;20530;-79
2022/06/20 12:33:53;;;;;;;32.90;30.70;;;29.20;93.30;;;;;;5006199;28;20327;-78
2022/06/20 12:36:29;;;;;;;8.52;5.70;;;30.40;91.30;;;;;;4996654;28;20173;-79
2022/06/20 12:39:10;;;;;;;10.43;9.25;;;31.70;88.40;;;;;;4992569;28;20207;-78
2022/06/20 12:41:42;;;;;;;9.45;8.23;;;32.70;85.30;;;;;;4995924;28;20161;-79
2022/06/20 12:44:30;;;;;;;11.38;10.27;;;33.20;83.30;;;;;;4995928;28;20189;-80
2022/06/20 12:47:04;;;;;;;18.73;16.33;;;32.80;83.40;;;;;;5003619;28;20211;-79
2022/06/20 12:49:44;;;;;;;10.30;6.93;;;31.90;83.80;;;;;;5004770;28;20211;-78
2022/06/20 12:52:18;;;;;;;11.27;10.02;;;30.90;86.30;;;;;;4992836;28;20252;-78
2022/06/20 12:55:15;;;;;;;21.08;11.30;;;30.10;90.00;;;;;;4993306;28;20180;-79
2022/06/20 12:58:00;;;;;;;14.30;9.18;;;29.80;90.40;;;;;;4997896;28;20188;-77
2022/06/20 13:00:34;;;;;;;9.50;8.50;;;30.00;89.50;;;;;;5003136;28;20204;-79
2022/06/20 13:03:18;;;;;;;9.82;7.80;;;29.70;89.00;;;;;;4995783;28;20323;-79
2022/06/20 13:06:03;;;;;;;28.13;25.92;;;29.30;90.70;;;;;;5001943;28;20191;-79
2022/06/20 13:08:48;;;;;;;29.75;27.30;;;29.50;91.20;;;;;;5000607;28;20247;-78
2022/06/20 13:11:23;;;;;;;30.77;27.88;;;29.50;91.10;;;;;;5003313;28;20191;-79
2022/06/20 13:14:08;;;;;;;14.00;11.95;;;29.80;90.60;;;;;;4994213;28;20180;-79
2022/06/20 13:16:59;;;;;;;14.50;10.60;;;30.20;90.10;;;;;;4994103;28;20204;-79
2022/06/20 13:19:54;;;;;;;43.03;39.97;;;29.60;90.40;;;;;;4994817;28;20278;-78
2022/06/20 13:22:42;;;;;;;49.70;46.75;;;28.70;91.90;;;;;;4995458;28;20331;-79
2022/06/20 13:25:23;;;;;;;19.08;17.73;;;28.30;91.70;;;;;;4994020;28;20219;-77
2022/06/20 13:28:15;;;;;;;14.25;12.73;;;28.00;92.40;;;;;;4994204;28;20214;-78